createdAt,value
2022-10-16T00:00:20.865Z,20.70
2022-10-16T00:02:50.328Z,20.70
2022-10-16T00:05:19.880Z,20.70
2022-10-16T00:07:49.369Z,20.80
2022-10-16T00:10:18.931Z,20.70
2022-10-16T00:12:48.531Z,20.80
2022-10-16T00:15:18.144Z,20.80
2022-10-16T00:17:47.634Z,20.80
2022-10-16T00:20:17.199Z,20.80
2022-10-16T00:22:46.685Z,20.80
2022-10-16T00:25:16.250Z,20.90
2022-10-16T00:27:45.829Z,20.80
2022-10-16T00:30:15.353Z,20.90
2022-10-16T00:32:44.765Z,20.90
2022-10-16T00:35:14.355Z,20.90
2022-10-16T00:37:43.968Z,21.00
2022-10-16T00:40:13.991Z,21.00
2022-10-16T00:42:44.040Z,21.00
2022-10-16T00:45:14.204Z,21.00
2022-10-16T00:47:48.528Z,21.00
2022-10-16T00:50:36.222Z,21.00
2022-10-16T00:53:06.680Z,21.10
2022-10-16T00:55:38.827Z,21.10
2022-10-16T00:58:11.326Z,21.10
2022-10-16T01:00:41.187Z,21.10
2022-10-16T01:03:34.762Z,21.10
2022-10-16T01:06:32.934Z,21.20
2022-10-16T01:09:36.939Z,21.20
2022-10-16T01:12:38.668Z,21.20
2022-10-16T01:15:20.657Z,21.20
2022-10-16T01:18:19.870Z,21.30
2022-10-16T01:21:01.137Z,21.30
2022-10-16T01:24:02.444Z,21.40
2022-10-16T01:27:10.843Z,21.40
2022-10-16T01:30:07.589Z,21.40
2022-10-16T01:33:00.292Z,21.40
2022-10-16T01:35:39.207Z,21.40
2022-10-16T01:38:23.579Z,21.40
2022-10-16T01:41:03.174Z,21.40
2022-10-16T01:43:42.387Z,21.40
2022-10-16T01:46:16.396Z,21.50
2022-10-16T01:48:45.902Z,21.40
2022-10-16T01:51:20.799Z,21.50
2022-10-16T01:53:56.244Z,21.50
2022-10-16T01:56:27.658Z,21.50
2022-10-16T01:59:01.895Z,21.50
2022-10-16T02:01:34.531Z,21.50
2022-10-16T02:04:12.171Z,21.50
2022-10-16T02:06:41.812Z,21.50
2022-10-16T02:09:11.901Z,21.50
2022-10-16T02:11:41.545Z,21.50
2022-10-16T02:14:11.451Z,21.40
2022-10-16T02:16:47.387Z,21.40
2022-10-16T02:19:21.416Z,21.30
2022-10-16T02:21:59.257Z,21.30
2022-10-16T02:24:41.638Z,21.20
2022-10-16T02:27:35.649Z,21.20
2022-10-16T02:30:11.997Z,21.20
2022-10-16T02:32:45.050Z,21.20
2022-10-16T02:35:16.057Z,21.20
2022-10-16T02:37:46.343Z,21.20
2022-10-16T02:40:18.289Z,21.20
2022-10-16T02:42:54.992Z,21.30
2022-10-16T02:45:25.927Z,21.30
2022-10-16T02:47:55.930Z,21.30
2022-10-16T02:50:26.995Z,21.40
2022-10-16T02:52:56.675Z,21.40
2022-10-16T02:55:26.327Z,21.40
2022-10-16T02:57:55.912Z,21.40
2022-10-16T03:00:25.493Z,21.40
2022-10-16T03:02:55.162Z,21.50
2022-10-16T03:05:24.796Z,21.50
2022-10-16T03:07:55.281Z,21.40
2022-10-16T03:10:24.987Z,21.50
2022-10-16T03:12:54.461Z,21.40
2022-10-16T03:15:24.053Z,21.50
2022-10-16T03:17:53.631Z,21.50
2022-10-16T03:20:23.215Z,21.50
2022-10-16T03:22:52.813Z,21.60
2022-10-16T03:25:22.354Z,21.60
2022-10-16T03:27:51.843Z,21.70
2022-10-16T03:30:21.436Z,21.70
2022-10-16T03:32:50.996Z,21.70
2022-10-16T03:35:20.475Z,21.80
2022-10-16T03:37:49.990Z,21.90
2022-10-16T03:40:20.314Z,22.00
2022-10-16T03:42:49.828Z,22.10
2022-10-16T03:45:19.422Z,22.10
2022-10-16T03:47:50.355Z,22.20
2022-10-16T03:50:20.598Z,22.30
2022-10-16T03:52:50.425Z,22.30
2022-10-16T03:55:20.362Z,22.40
2022-10-16T03:57:50.150Z,22.50
2022-10-16T04:00:20.070Z,22.50
2022-10-16T04:02:50.051Z,22.50
2022-10-16T04:05:19.874Z,22.50
2022-10-16T04:07:49.922Z,22.50
2022-10-16T04:10:19.973Z,22.40
2022-10-16T04:12:49.790Z,22.40
2022-10-16T04:15:19.992Z,22.40
2022-10-16T04:17:49.923Z,22.40
2022-10-16T04:20:19.855Z,22.40
2022-10-16T04:22:49.693Z,22.40
2022-10-16T04:25:19.593Z,22.50
2022-10-16T04:27:49.419Z,22.40
2022-10-16T04:30:19.430Z,22.50
2022-10-16T04:32:53.189Z,22.60
2022-10-16T04:35:23.999Z,22.60
2022-10-16T04:37:54.007Z,22.70
2022-10-16T04:40:23.803Z,22.70
2022-10-16T04:42:53.671Z,22.80
2022-10-16T04:45:23.648Z,22.80
2022-10-16T04:47:53.415Z,22.90
2022-10-16T04:50:23.226Z,22.90
2022-10-16T04:52:53.096Z,22.90
2022-10-16T04:55:22.599Z,22.90
2022-10-16T04:57:52.297Z,22.90
2022-10-16T05:00:21.926Z,23.00
2022-10-16T05:02:53.417Z,23.00
2022-10-16T05:05:22.978Z,23.00
2022-10-16T05:07:52.584Z,23.10
2022-10-16T05:10:22.220Z,23.20
2022-10-16T05:12:51.817Z,23.30
2022-10-16T05:15:21.503Z,23.40
2022-10-16T05:17:50.947Z,23.40
2022-10-16T05:20:20.506Z,23.50
2022-10-16T05:22:50.036Z,23.50
2022-10-16T05:25:19.795Z,23.50
2022-10-16T05:27:52.824Z,23.60
2022-10-16T05:30:22.841Z,23.60
2022-10-16T05:32:53.419Z,23.70
2022-10-16T05:35:23.499Z,23.60
2022-10-16T05:37:52.964Z,23.60
2022-10-16T05:40:22.437Z,23.60
2022-10-16T05:42:52.067Z,23.60
2022-10-16T05:45:21.543Z,23.60
2022-10-16T05:47:51.044Z,23.70
2022-10-16T05:50:21.194Z,23.70
2022-10-16T05:52:50.839Z,23.70
2022-10-16T05:55:20.331Z,23.70
2022-10-16T05:57:50.285Z,23.70
2022-10-16T06:00:19.844Z,23.70
2022-10-16T06:02:49.313Z,23.70
2022-10-16T06:05:18.869Z,23.70
2022-10-16T06:07:48.396Z,23.70
2022-10-16T06:10:17.971Z,23.80
2022-10-16T06:12:47.517Z,23.80
2022-10-16T06:15:17.075Z,23.70
2022-10-16T06:17:46.548Z,23.80
2022-10-16T06:20:16.107Z,23.80
2022-10-16T06:22:45.661Z,23.70
2022-10-16T06:25:15.210Z,23.70
2022-10-16T06:27:44.811Z,23.70
2022-10-16T06:30:14.398Z,23.70
2022-10-16T06:32:43.950Z,23.70
2022-10-16T06:35:13.478Z,23.70
2022-10-16T06:37:42.958Z,23.70
2022-10-16T06:40:12.672Z,23.70
2022-10-16T06:42:42.191Z,23.70
2022-10-16T06:45:12.202Z,23.70
2022-10-16T06:47:41.734Z,23.70
2022-10-16T06:50:11.492Z,23.70
2022-10-16T06:52:42.093Z,23.70
2022-10-16T06:55:12.320Z,23.80
2022-10-16T06:57:42.140Z,23.80
2022-10-16T07:00:12.454Z,23.80
2022-10-16T07:02:42.370Z,23.90
2022-10-16T07:05:12.210Z,23.90
2022-10-16T07:07:42.018Z,23.90
2022-10-16T07:10:12.063Z,23.90
2022-10-16T07:12:41.813Z,24.00
2022-10-16T07:15:12.025Z,23.90
2022-10-16T07:17:41.903Z,23.90
2022-10-16T07:20:12.291Z,23.80
2022-10-16T07:22:42.163Z,23.90
2022-10-16T07:25:12.716Z,23.80
2022-10-16T07:27:42.563Z,23.80
2022-10-16T07:30:13.126Z,23.90
2022-10-16T07:32:43.109Z,23.90
2022-10-16T07:35:13.443Z,23.90
2022-10-16T07:37:46.986Z,23.90
2022-10-16T07:40:16.988Z,23.90
2022-10-16T07:42:46.753Z,24.00
2022-10-16T07:45:16.664Z,24.00
2022-10-16T07:47:46.463Z,24.00
2022-10-16T07:50:16.451Z,24.00
2022-10-16T07:52:46.410Z,24.00
2022-10-16T07:55:16.636Z,24.00
2022-10-16T07:57:46.485Z,24.10
2022-10-16T08:00:17.011Z,24.10
2022-10-16T08:02:46.844Z,24.10
2022-10-16T08:05:16.794Z,24.00
2022-10-16T08:07:51.284Z,24.00
2022-10-16T08:10:23.118Z,24.00
2022-10-16T08:12:53.399Z,24.00
2022-10-16T08:15:23.700Z,24.00
2022-10-16T08:18:04.805Z,24.00
2022-10-16T08:20:35.703Z,24.10
2022-10-16T08:23:14.084Z,24.10
2022-10-16T08:25:44.613Z,24.10
2022-10-16T08:28:15.053Z,24.10
2022-10-16T08:30:45.029Z,24.10
2022-10-16T08:33:15.000Z,24.10
2022-10-16T08:35:45.142Z,24.10
2022-10-16T08:38:15.102Z,24.10
2022-10-16T08:40:48.615Z,24.10
2022-10-16T08:43:57.989Z,24.20
2022-10-16T08:46:54.637Z,24.10
2022-10-16T08:49:27.212Z,24.10
2022-10-16T08:51:58.749Z,24.10
2022-10-16T08:54:43.128Z,24.10
2022-10-16T08:57:24.481Z,24.10
2022-10-16T08:59:57.913Z,24.10
2022-10-16T09:02:38.165Z,24.10
2022-10-16T09:05:46.868Z,24.10
2022-10-16T09:08:37.682Z,24.10
2022-10-16T09:11:22.346Z,24.10
2022-10-16T09:14:06.333Z,24.00
2022-10-16T09:16:46.098Z,24.00
2022-10-16T09:19:36.020Z,24.00
2022-10-16T09:22:19.714Z,24.00
2022-10-16T09:24:49.565Z,23.90
2022-10-16T09:27:19.479Z,23.90
2022-10-16T09:29:49.622Z,23.90
2022-10-16T09:32:23.887Z,23.80
2022-10-16T09:35:00.090Z,23.80
2022-10-16T09:37:30.740Z,23.80
2022-10-16T09:40:05.080Z,23.80
2022-10-16T09:42:40.426Z,23.70
2022-10-16T09:45:24.603Z,23.70
2022-10-16T09:47:57.706Z,23.70
2022-10-16T09:50:29.947Z,23.70
2022-10-16T09:53:16.442Z,23.60
2022-10-16T09:55:54.134Z,23.60
2022-10-16T09:58:27.599Z,23.60
2022-10-16T10:00:57.892Z,23.50
2022-10-16T10:03:47.842Z,23.50
2022-10-16T10:06:29.963Z,23.50
2022-10-16T10:09:30.202Z,23.50
2022-10-16T10:14:39.325Z,23.40
2022-10-16T10:17:16.114Z,23.40
2022-10-16T10:20:03.298Z,23.40
2022-10-16T10:22:48.236Z,23.40
2022-10-16T10:25:46.508Z,23.40
2022-10-16T10:28:39.711Z,23.30
2022-10-16T10:31:48.356Z,23.30
2022-10-16T10:34:44.976Z,23.30
2022-10-16T10:37:45.638Z,23.30
2022-10-16T10:40:54.460Z,23.30
2022-10-16T10:43:47.332Z,23.30
2022-10-16T10:46:35.117Z,23.20
2022-10-16T10:49:34.041Z,23.20
2022-10-16T10:52:40.592Z,23.20
2022-10-16T10:55:23.159Z,23.20
2022-10-16T10:58:18.508Z,23.20
2022-10-16T11:01:22.070Z,23.20
2022-10-16T11:04:25.108Z,23.10
2022-10-16T11:07:05.034Z,23.10
2022-10-16T11:09:44.831Z,23.10
2022-10-16T11:12:34.263Z,23.10
2022-10-16T11:15:28.553Z,23.10
2022-10-16T11:18:20.850Z,23.00
2022-10-16T11:21:07.283Z,23.00
2022-10-16T11:23:55.053Z,23.00
2022-10-16T11:26:32.627Z,23.00
2022-10-16T11:29:04.859Z,22.90
2022-10-16T11:31:49.853Z,22.90
2022-10-16T11:34:47.468Z,22.90
2022-10-16T11:37:30.580Z,22.90
2022-10-16T11:40:08.396Z,22.90
2022-10-16T11:42:46.372Z,22.80
2022-10-16T11:45:45.465Z,22.80
2022-10-16T11:48:54.265Z,22.80
2022-10-16T11:51:41.400Z,22.80
2022-10-16T11:54:50.244Z,22.80
2022-10-16T11:57:25.783Z,22.80
2022-10-16T12:00:11.342Z,22.80
2022-10-16T12:03:11.739Z,22.80
2022-10-16T12:06:08.940Z,22.80
2022-10-16T12:08:39.032Z,22.80
2022-10-16T12:11:40.175Z,22.70
2022-10-16T12:15:11.271Z,22.70
2022-10-16T12:17:41.700Z,22.80
2022-10-16T12:20:33.403Z,22.70
2022-10-16T12:23:07.045Z,22.70
2022-10-16T12:25:42.509Z,22.70
2022-10-16T12:28:30.591Z,22.70
2022-10-16T12:31:12.608Z,22.70
2022-10-16T12:33:57.735Z,22.70
2022-10-16T12:36:36.017Z,22.70
2022-10-16T12:39:05.830Z,22.70
2022-10-16T12:41:37.909Z,22.70
2022-10-16T12:44:07.482Z,22.70
2022-10-16T12:46:44.043Z,22.60
2022-10-16T12:49:41.305Z,22.70
2022-10-16T12:52:32.180Z,22.70
2022-10-16T12:55:03.363Z,22.60
2022-10-16T12:58:12.340Z,22.60
2022-10-16T13:00:56.754Z,22.70
2022-10-16T13:04:05.685Z,22.60
2022-10-16T13:07:06.503Z,22.60
2022-10-16T13:10:12.194Z,22.60
2022-10-16T13:13:20.904Z,22.60
2022-10-16T13:16:16.143Z,22.60
2022-10-16T13:19:24.850Z,22.60
2022-10-16T13:22:33.469Z,22.60
2022-10-16T13:25:38.953Z,22.60
2022-10-16T13:28:12.896Z,22.60
2022-10-16T13:31:04.024Z,22.60
2022-10-16T13:33:44.649Z,22.60
2022-10-16T13:36:37.793Z,22.60
2022-10-16T13:39:20.600Z,22.60
2022-10-16T13:42:08.890Z,22.60
2022-10-16T13:44:56.960Z,22.50
2022-10-16T13:47:31.281Z,22.50
2022-10-16T13:50:14.189Z,22.50
2022-10-16T13:52:44.179Z,22.50
2022-10-16T13:55:19.286Z,22.50
2022-10-16T13:57:49.116Z,22.50
2022-10-16T14:00:25.900Z,22.50
2022-10-16T14:03:06.715Z,22.50
2022-10-16T14:05:37.684Z,22.50
2022-10-16T14:08:07.918Z,22.40
2022-10-16T14:10:37.793Z,22.50
2022-10-16T14:13:10.469Z,22.50
2022-10-16T14:15:40.713Z,22.40
2022-10-16T14:18:18.889Z,22.40
2022-10-16T14:20:49.308Z,22.40
2022-10-16T14:23:37.357Z,22.40
2022-10-16T14:26:19.128Z,22.30
2022-10-16T14:28:51.852Z,22.30
2022-10-16T14:31:36.282Z,22.30
2022-10-16T14:34:08.728Z,22.30
2022-10-16T14:36:39.050Z,22.30
2022-10-16T14:39:21.866Z,22.30
2022-10-16T14:41:53.761Z,22.30
2022-10-16T14:44:31.186Z,22.30
2022-10-16T14:47:02.325Z,22.30
2022-10-16T14:49:34.389Z,22.40
2022-10-16T14:52:08.005Z,22.30
2022-10-16T14:54:37.934Z,22.30
2022-10-16T14:57:08.346Z,22.40
2022-10-16T14:59:46.752Z,22.40
2022-10-16T15:02:37.173Z,22.30
2022-10-16T15:05:29.072Z,22.40
2022-10-16T15:07:59.333Z,22.30
2022-10-16T15:10:32.057Z,22.30
2022-10-16T15:13:01.943Z,22.30
2022-10-16T15:15:43.303Z,22.30
2022-10-16T15:18:13.524Z,22.30
2022-10-16T15:20:43.817Z,22.30
2022-10-16T15:23:19.555Z,22.30
2022-10-16T15:25:55.776Z,22.30
2022-10-16T15:28:27.154Z,22.30
2022-10-16T15:30:59.514Z,22.20
2022-10-16T15:33:38.758Z,22.30
2022-10-16T15:36:10.775Z,22.30
2022-10-16T15:38:40.637Z,22.20
2022-10-16T15:41:10.630Z,22.20
2022-10-16T15:43:40.645Z,22.20
2022-10-16T15:46:20.535Z,22.20
2022-10-16T15:48:51.982Z,22.20
2022-10-16T15:51:22.293Z,22.20
2022-10-16T15:53:53.507Z,22.20
2022-10-16T15:56:24.902Z,22.20
2022-10-16T15:58:56.416Z,22.20
2022-10-16T16:01:26.335Z,22.20
2022-10-16T16:03:59.725Z,22.20
2022-10-16T16:06:30.143Z,22.20
2022-10-16T16:11:34.491Z,22.20
2022-10-16T16:14:03.989Z,22.10
2022-10-16T16:16:34.565Z,22.10
2022-10-16T16:19:07.768Z,22.10
2022-10-16T16:21:40.290Z,22.10
2022-10-16T16:24:10.568Z,22.10
2022-10-16T16:26:42.417Z,22.10
2022-10-16T16:29:16.327Z,22.10
2022-10-16T16:31:46.747Z,22.10
2022-10-16T16:34:16.925Z,22.10
2022-10-16T16:36:46.362Z,22.10
2022-10-16T16:39:15.948Z,22.10
2022-10-16T16:41:45.880Z,22.00
2022-10-16T16:44:16.444Z,22.00
2022-10-16T16:46:47.550Z,22.10
2022-10-16T16:49:18.059Z,22.00
2022-10-16T16:51:47.933Z,22.00
2022-10-16T16:54:17.887Z,22.00
2022-10-16T16:56:47.796Z,22.00
2022-10-16T16:59:20.450Z,22.00
2022-10-16T17:01:55.565Z,22.00
2022-10-16T17:04:26.455Z,22.00
2022-10-16T17:06:58.192Z,22.00
2022-10-16T17:09:28.444Z,22.00
2022-10-16T17:11:58.285Z,22.00
2022-10-16T17:14:28.206Z,22.00
2022-10-16T17:16:58.216Z,21.90
2022-10-16T17:19:28.099Z,21.90
2022-10-16T17:21:58.026Z,21.90
2022-10-16T17:24:27.981Z,21.90
2022-10-16T17:26:57.978Z,21.90
2022-10-16T17:29:28.259Z,21.90
2022-10-16T17:32:00.958Z,21.90
2022-10-16T17:34:30.747Z,21.90
2022-10-16T17:37:00.667Z,21.90
2022-10-16T17:39:30.668Z,21.90
2022-10-16T17:42:00.487Z,21.80
2022-10-16T17:44:30.379Z,21.80
2022-10-16T17:47:00.268Z,21.80
2022-10-16T17:49:30.139Z,21.80
2022-10-16T17:52:00.653Z,21.80
2022-10-16T17:54:31.122Z,21.80
2022-10-16T17:57:00.704Z,21.80
2022-10-16T17:59:31.041Z,21.70
2022-10-16T18:02:00.779Z,21.70
2022-10-16T18:04:30.446Z,21.70
2022-10-16T18:07:02.102Z,21.80
2022-10-16T18:09:32.005Z,21.70
2022-10-16T18:12:02.113Z,21.70
2022-10-16T18:14:33.253Z,21.70
2022-10-16T18:17:03.032Z,21.70
2022-10-16T18:19:32.626Z,21.70
2022-10-16T18:22:02.131Z,21.70
2022-10-16T18:24:31.562Z,21.60
2022-10-16T18:27:01.062Z,21.60
2022-10-16T18:29:30.699Z,21.60
2022-10-16T18:32:01.243Z,21.60
2022-10-16T18:34:30.818Z,21.60
2022-10-16T18:37:00.436Z,21.60
2022-10-16T18:39:29.992Z,21.60
2022-10-16T18:42:01.334Z,21.60
2022-10-16T18:44:32.758Z,21.50
2022-10-16T18:47:04.050Z,21.50
2022-10-16T18:49:33.628Z,21.60
2022-10-16T18:52:04.941Z,21.50
2022-10-16T18:54:35.043Z,21.50
2022-10-16T18:57:04.949Z,21.50
2022-10-16T18:59:34.805Z,21.50
2022-10-16T19:02:04.889Z,21.50
2022-10-16T19:04:34.812Z,21.50
2022-10-16T19:07:05.503Z,21.50
2022-10-16T19:09:35.538Z,21.50
2022-10-16T19:12:05.513Z,21.50
2022-10-16T19:14:35.670Z,21.40
2022-10-16T19:17:05.739Z,21.40
2022-10-16T19:19:36.075Z,21.40
2022-10-16T19:22:26.076Z,21.40
2022-10-16T19:24:57.249Z,21.40
2022-10-16T19:27:27.093Z,21.30
2022-10-16T19:29:56.976Z,21.40
2022-10-16T19:32:27.060Z,21.30
2022-10-16T19:34:58.495Z,21.30
2022-10-16T19:37:29.048Z,21.30
2022-10-16T19:39:58.875Z,21.30
2022-10-16T19:42:28.975Z,21.20
2022-10-16T19:44:59.188Z,21.20
2022-10-16T19:47:29.041Z,21.20
2022-10-16T19:49:58.892Z,21.20
2022-10-16T19:52:28.859Z,21.20
2022-10-16T19:54:59.319Z,21.20
2022-10-16T19:57:29.196Z,21.20
2022-10-16T19:59:58.730Z,21.20
2022-10-16T20:02:28.697Z,21.20
2022-10-16T20:04:58.611Z,21.20
2022-10-16T20:07:31.295Z,21.10
2022-10-16T20:10:03.964Z,21.10
2022-10-16T20:12:33.470Z,21.10
2022-10-16T20:15:03.754Z,21.10
2022-10-16T20:17:33.286Z,21.10
2022-10-16T20:20:02.739Z,21.00
2022-10-16T20:22:32.219Z,21.00
2022-10-16T20:25:01.697Z,21.00
2022-10-16T20:27:32.960Z,21.00
2022-10-16T20:30:02.462Z,21.00
2022-10-16T20:32:32.660Z,21.00
2022-10-16T20:35:05.677Z,20.90
2022-10-16T20:37:37.338Z,20.90
2022-10-16T20:40:07.321Z,20.90
2022-10-16T20:42:36.772Z,20.90
2022-10-16T20:45:06.619Z,20.90
2022-10-16T20:47:36.294Z,20.90
2022-10-16T20:50:06.494Z,20.80
2022-10-16T20:52:38.204Z,20.80
2022-10-16T20:55:08.329Z,20.80
2022-10-16T20:57:37.808Z,20.80
2022-10-16T21:00:08.198Z,20.70
2022-10-16T21:02:37.788Z,20.70
2022-10-16T21:05:07.707Z,20.70
2022-10-16T21:07:37.910Z,20.70
2022-10-16T21:10:08.320Z,20.60
2022-10-16T21:12:37.868Z,20.70
2022-10-16T21:15:14.906Z,20.60
2022-10-16T21:17:45.049Z,20.60
2022-10-16T21:20:14.645Z,20.60
2022-10-16T21:22:44.160Z,20.60
2022-10-16T21:25:13.780Z,20.50
2022-10-16T21:27:43.858Z,20.60
2022-10-16T21:30:13.633Z,20.50
2022-10-16T21:32:43.358Z,20.50
2022-10-16T21:35:12.979Z,20.50
2022-10-16T21:37:42.407Z,20.50
2022-10-16T21:40:12.428Z,20.50
2022-10-16T21:42:41.995Z,20.50
2022-10-16T21:45:11.731Z,20.50
2022-10-16T21:47:41.188Z,20.40
2022-10-16T21:50:11.187Z,20.40
2022-10-16T21:52:40.749Z,20.40
2022-10-16T21:55:10.948Z,20.40
2022-10-16T21:57:40.883Z,20.30
2022-10-16T22:00:11.451Z,20.40
2022-10-16T22:02:40.945Z,20.30
2022-10-16T22:05:11.109Z,20.30
2022-10-16T22:07:41.668Z,20.30
2022-10-16T22:10:11.895Z,20.30
2022-10-16T22:12:42.258Z,20.30
2022-10-16T22:15:12.870Z,20.30
2022-10-16T22:17:42.770Z,20.30
2022-10-16T22:20:13.577Z,20.20
2022-10-16T22:22:43.452Z,20.20
2022-10-16T22:25:13.380Z,20.20
2022-10-16T22:27:43.450Z,20.20
2022-10-16T22:30:13.791Z,20.20
2022-10-16T22:32:43.647Z,20.20
2022-10-16T22:35:13.572Z,20.20
2022-10-16T22:37:43.452Z,20.10
2022-10-16T22:40:14.024Z,20.10
2022-10-16T22:42:44.145Z,20.10
2022-10-16T22:45:14.085Z,20.10
2022-10-16T22:47:43.897Z,20.10
2022-10-16T22:50:13.827Z,20.10
2022-10-16T22:52:43.652Z,20.10
2022-10-16T22:55:13.464Z,20.10
2022-10-16T22:57:43.375Z,20.10
2022-10-16T23:00:16.027Z,20.10
2022-10-16T23:02:46.003Z,20.10
2022-10-16T23:05:16.008Z,20.00
2022-10-16T23:07:48.061Z,20.00
2022-10-16T23:10:19.028Z,20.00
2022-10-16T23:12:48.829Z,20.00
2022-10-16T23:15:18.790Z,20.10
2022-10-16T23:17:48.641Z,20.00
2022-10-16T23:20:18.614Z,20.00
2022-10-16T23:22:48.452Z,20.00
2022-10-16T23:25:18.695Z,20.00
2022-10-16T23:27:48.700Z,20.00
2022-10-16T23:30:18.799Z,20.00
2022-10-16T23:32:48.830Z,20.00
2022-10-16T23:35:18.765Z,19.90
2022-10-16T23:37:48.792Z,19.90
2022-10-16T23:40:18.758Z,20.00
2022-10-16T23:42:48.582Z,20.00
2022-10-16T23:45:18.433Z,20.00
2022-10-16T23:47:48.389Z,20.00
2022-10-16T23:50:18.508Z,20.00
2022-10-16T23:52:48.466Z,20.00
2022-10-16T23:55:18.515Z,20.00
2022-10-16T23:57:48.388Z,20.00
